createdAt,value
2023-05-10T00:04:17.245Z,428.7618
2023-05-10T00:09:29.366Z,428.3285
2023-05-10T00:14:41.459Z,429.0207
2023-05-10T00:19:53.636Z,428.6746
2023-05-10T00:25:05.820Z,429.1951
2023-05-10T00:30:18.258Z,428.849
2023-05-10T00:35:30.888Z,428.2413
2023-05-10T00:40:43.066Z,428.1541
2023-05-10T00:45:55.222Z,428.413
2023-05-10T00:51:07.345Z,427.2002
2023-05-10T00:56:20.240Z,426.6797
2023-05-10T01:01:32.377Z,427.2002
2023-05-10T01:06:44.551Z,426.9386
2023-05-10T01:12:00.086Z,426.6797
2023-05-10T01:17:12.298Z,426.8514
2023-05-10T01:22:24.598Z,425.9847
2023-05-10T01:27:36.809Z,424.9437
2023-05-10T01:32:49.522Z,424.5976
2023-05-10T01:38:05.627Z,424.9437
2023-05-10T01:43:17.734Z,424.336
2023-05-10T01:48:29.892Z,424.2488
2023-05-10T01:53:42.251Z,423.7309
2023-05-10T01:58:54.378Z,423.9898
2023-05-10T02:04:07.158Z,423.6437
2023-05-10T02:09:19.333Z,422.3411
2023-05-10T02:14:31.508Z,422.2565
2023-05-10T02:19:43.686Z,421.8205
2023-05-10T02:24:55.799Z,421.2155
2023-05-10T02:30:07.923Z,420.5205
2023-05-10T02:35:20.073Z,419.7411
2023-05-10T02:40:32.270Z,420.6077
2023-05-10T02:45:44.519Z,420.2616
2023-05-10T02:50:56.734Z,420.5205
2023-05-10T02:56:08.984Z,420.5205
2023-05-10T03:01:21.125Z,420.6949
2023-05-10T03:06:33.283Z,420
2023-05-10T03:11:45.404Z,419.9128
2023-05-10T03:16:57.522Z,419.4795
2023-05-10T03:22:09.639Z,419.1333
2023-05-10T03:27:21.737Z,419.4795
2023-05-10T03:32:33.916Z,419.3077
2023-05-10T03:37:46.022Z,418.9616
2023-05-10T03:42:58.132Z,418.3539
2023-05-10T03:48:10.265Z,417.3128
2023-05-10T03:53:22.569Z,418.1795
2023-05-10T03:58:34.687Z,417.8333
2023-05-10T04:03:47.599Z,418.0923
2023-05-10T04:08:59.872Z,418.2667
2023-05-10T04:14:12.982Z,418.2667
2023-05-10T04:19:25.094Z,417.5744
2023-05-10T04:24:37.217Z,418.5283
2023-05-10T04:29:49.340Z,417.5744
2023-05-10T04:35:01.523Z,417.1411
2023-05-10T04:40:13.702Z,416.9667
2023-05-10T04:45:25.874Z,417.659
2023-05-10T04:50:38.067Z,416.7077
2023-05-10T04:55:50.188Z,417.0539
2023-05-10T05:01:02.917Z,415.8411
2023-05-10T05:06:19.235Z,416.1872
2023-05-10T05:11:31.416Z,416.7077
2023-05-10T05:16:43.694Z,415.5795
2023-05-10T05:21:55.935Z,414.8872
2023-05-10T05:27:08.124Z,415.8411
2023-05-10T05:32:20.235Z,414.8872
2023-05-10T05:37:32.350Z,414.1949
2023-05-10T05:37:44.410Z,414.7128
2023-05-10T05:42:56.522Z,414.8872
2023-05-10T05:48:08.655Z,414.9744
2023-05-10T05:53:20.960Z,414.5411
2023-05-10T05:58:33.088Z,414.1949
2023-05-10T06:03:45.361Z,413.7616
2023-05-10T06:08:57.724Z,413.0667
2023-05-10T06:14:09.898Z,413.2411
2023-05-10T06:19:24.762Z,412.4616
2023-05-10T06:24:38.672Z,412.1154
2023-05-10T06:29:56.366Z,412.4616
2023-05-10T06:35:11.514Z,411.9411
2023-05-10T06:40:23.621Z,410.8155
2023-05-10T06:45:35.757Z,410.8155
2023-05-10T06:50:47.872Z,410.5539
2023-05-10T06:56:00.052Z,411.0744
2023-05-10T07:01:12.344Z,410.9872
2023-05-10T07:06:32.980Z,411.9411
2023-05-10T07:11:46.022Z,411.8539
2023-05-10T07:16:58.163Z,411.0744
2023-05-10T07:22:10.282Z,411.0744
2023-05-10T07:27:22.471Z,410.4693
2023-05-10T07:32:35.704Z,411.8539
2023-05-10T07:37:50.898Z,411.1616
2023-05-10T07:43:03.049Z,410.9026
2023-05-10T07:48:15.172Z,410.4693
2023-05-10T07:53:32.403Z,410.8155
2023-05-10T07:58:44.524Z,410.2077
2023-05-10T08:03:56.698Z,410.3821
2023-05-10T08:09:08.906Z,409.8616
2023-05-10T08:14:21.139Z,409.3437
2023-05-10T08:19:33.261Z,409.6898
2023-05-10T08:24:45.369Z,408.9949
2023-05-10T08:29:57.496Z,409.5155
2023-05-10T08:35:10.796Z,408.5616
2023-05-10T08:40:23.442Z,408.1309
2023-05-10T08:45:35.652Z,408.5616
2023-05-10T08:50:47.866Z,408.4771
2023-05-10T08:56:05.131Z,407.3514
2023-05-10T09:01:17.423Z,406.8309
2023-05-10T09:06:29.708Z,406.572
2023-05-10T09:11:41.880Z,407.436
2023-05-10T09:16:54.037Z,406.9181
2023-05-10T09:17:06.212Z,406.4848
2023-05-10T09:22:18.450Z,406.4848
2023-05-10T09:27:30.553Z,406.1386
2023-05-10T09:32:42.804Z,406.7437
2023-05-10T09:37:55.970Z,406.0515
2023-05-10T09:43:10.085Z,405.7053
2023-05-10T09:48:23.434Z,405.7925
2023-05-10T09:53:35.560Z,406.3104
2023-05-10T09:58:47.615Z,406.3976
2023-05-10T10:03:59.840Z,406.8309
2023-05-10T10:09:12.157Z,405.7925
2023-05-10T10:14:24.347Z,405.9642
2023-05-10T10:19:36.909Z,407.0053
2023-05-10T10:24:49.531Z,407.5232
2023-05-10T10:30:02.098Z,407.1771
2023-05-10T10:35:14.474Z,406.9181
2023-05-10T10:40:26.932Z,407.6976
2023-05-10T10:45:40.209Z,406.6592
2023-05-10T10:50:54.066Z,405.1848
2023-05-10T10:56:06.287Z,404.4951
2023-05-10T11:01:18.562Z,403.8874
2023-05-10T11:06:30.706Z,402.6746
2023-05-10T11:11:42.816Z,402.5901
2023-05-10T11:16:55.140Z,402.0695
2023-05-10T11:22:07.831Z,402.1567
2023-05-10T11:27:19.879Z,402.1567
2023-05-10T11:32:32.058Z,401.7234
2023-05-10T11:37:44.214Z,401.2055
2023-05-10T11:42:56.402Z,400.0799
2023-05-10T11:48:08.573Z,400.5132
2023-05-10T11:53:21.250Z,399.7338
2023-05-10T11:58:33.376Z,400.5978
2023-05-10T12:03:45.932Z,400.3388
2023-05-10T12:08:58.178Z,400.0799
2023-05-10T12:14:12.570Z,401.5516
2023-05-10T12:19:25.035Z,401.2901
2023-05-10T12:24:37.255Z,400.8594
2023-05-10T12:29:49.530Z,400.7722
2023-05-10T12:35:02.516Z,400.685
2023-05-10T12:40:14.795Z,401.0311
2023-05-10T12:45:27.086Z,400.685
2023-05-10T12:50:39.220Z,401.0311
2023-05-10T12:55:51.328Z,401.9823
2023-05-10T13:01:04.049Z,401.0311
2023-05-10T13:06:16.358Z,401.2055
2023-05-10T13:11:28.569Z,401.2901
2023-05-10T13:16:40.714Z,400.8594
2023-05-10T13:21:52.853Z,400.8594
2023-05-10T13:27:04.974Z,401.8978
2023-05-10T13:32:17.091Z,401.8106
2023-05-10T13:37:29.832Z,401.8978
2023-05-10T13:42:41.949Z,402.5901
2023-05-10T13:47:54.089Z,402.5029
2023-05-10T13:53:06.405Z,402.0695
2023-05-10T13:58:18.705Z,402.5901
2023-05-10T14:03:30.940Z,402.1567
2023-05-10T14:08:43.258Z,402.849
2023-05-10T14:13:55.518Z,403.2823
2023-05-10T14:19:08.291Z,403.6285
2023-05-10T14:24:20.542Z,402.5029
2023-05-10T14:29:32.659Z,402.5029
2023-05-10T14:34:45.283Z,404.3207
2023-05-10T14:39:57.438Z,404.3207
2023-05-10T14:45:09.563Z,403.8874
2023-05-10T14:50:35.092Z,403.3695
2023-05-10T14:55:48.910Z,404.2336
2023-05-10T15:01:01.129Z,403.8002
2023-05-10T15:06:13.806Z,403.9746
2023-05-10T15:11:25.928Z,403.8874
2023-05-10T15:16:38.103Z,403.6285
2023-05-10T15:21:50.246Z,403.4541
2023-05-10T15:27:02.613Z,402.849
2023-05-10T15:32:14.795Z,403.1079
2023-05-10T15:37:27.033Z,402.0695
2023-05-10T15:42:39.148Z,401.7234
2023-05-10T15:47:51.371Z,401.2055
2023-05-10T15:53:06.313Z,401.1183
2023-05-10T15:58:18.427Z,400.7722
2023-05-10T16:03:30.601Z,400.8594
2023-05-10T16:08:42.810Z,400.9439
2023-05-10T16:13:55.091Z,400.5978
2023-05-10T16:19:07.729Z,400.3388
2023-05-10T16:24:22.448Z,400.1671
2023-05-10T16:29:34.643Z,400.2516
2023-05-10T16:34:46.833Z,399.9927
2023-05-10T16:39:59.673Z,400.8594
2023-05-10T16:45:11.922Z,399.4748
2023-05-10T16:50:24.038Z,398.1748
2023-05-10T16:55:36.206Z,398.3492
2023-05-10T17:00:48.329Z,397.1364
2023-05-10T17:06:00.449Z,397.0518
2023-05-10T17:11:12.748Z,397.0518
2023-05-10T17:16:25.497Z,396.1006
2023-05-10T17:21:37.807Z,395.8417
2023-05-10T17:26:50.044Z,395.7545
2023-05-10T17:32:02.897Z,394.8878
2023-05-10T17:37:15.212Z,394.4572
2023-05-10T17:42:27.398Z,393.5931
2023-05-10T17:47:40.120Z,393.0726
2023-05-10T17:52:52.708Z,393.4187
2023-05-10T17:58:07.061Z,393.1598
2023-05-10T18:03:19.164Z,393.247
2023-05-10T18:08:31.282Z,392.9008
2023-05-10T18:13:48.053Z,393.247
2023-05-10T18:19:00.518Z,392.3803
2023-05-10T18:24:26.520Z,392.4675
2023-05-10T18:29:49.600Z,392.2958
2023-05-10T18:35:07.231Z,393.0726
2023-05-10T18:40:19.355Z,394.1982
2023-05-10T18:45:31.456Z,392.9008
2023-05-10T18:50:43.749Z,392.7264
2023-05-10T18:55:56.179Z,392.2958
2023-05-10T19:01:08.372Z,391.9496
2023-05-10T19:06:21.007Z,392.1214
2023-05-10T19:11:33.110Z,391.2574
2023-05-10T19:16:45.243Z,391.2574
2023-05-10T19:21:57.379Z,390.0472
2023-05-10T19:27:09.495Z,389.6139
2023-05-10T19:32:23.076Z,389.4421
2023-05-10T19:37:35.248Z,389.5267
2023-05-10T19:42:48.187Z,389.701
2023-05-10T19:48:00.428Z,389.0088
2023-05-10T19:53:12.505Z,389.4421
2023-05-10T19:58:24.615Z,389.3549
2023-05-10T20:03:36.878Z,390.6523
2023-05-10T20:08:49.002Z,389.8728
2023-05-10T20:14:01.114Z,389.5267
2023-05-10T20:19:13.412Z,390.4779
2023-05-10T20:24:26.121Z,389.4421
2023-05-10T20:29:38.255Z,389.701
2023-05-10T20:34:50.498Z,389.6139
2023-05-10T20:40:02.687Z,390.0472
2023-05-10T20:45:15.250Z,389.96
2023-05-10T20:50:27.368Z,389.96
2023-05-10T20:55:40.562Z,390.2189
2023-05-10T21:00:57.684Z,390.9112
2023-05-10T21:06:11.157Z,391.0829
2023-05-10T21:11:23.413Z,390.6523
2023-05-10T21:16:35.643Z,391.1702
2023-05-10T21:21:48.022Z,391.2574
2023-05-10T21:27:00.152Z,390.6523
2023-05-10T21:32:12.433Z,390.9984
2023-05-10T21:37:24.717Z,390.824
2023-05-10T21:42:36.835Z,391.2574
2023-05-10T21:47:48.961Z,391.688
2023-05-10T21:53:01.096Z,391.4291
2023-05-10T21:58:13.193Z,391.5163
2023-05-10T22:03:25.668Z,391.6035
2023-05-10T22:08:38.170Z,391.1702
2023-05-10T22:13:50.282Z,391.9496
2023-05-10T22:19:02.769Z,391.8624
2023-05-10T22:24:15.035Z,392.0342
2023-05-10T22:29:27.197Z,391.4291
2023-05-10T22:34:39.381Z,391.7752
2023-05-10T22:39:51.485Z,392.8137
2023-05-10T22:45:03.727Z,391.9496
2023-05-10T22:50:16.354Z,392.6419
2023-05-10T22:55:28.827Z,392.2958
2023-05-10T23:00:41.001Z,392.2958
2023-05-10T23:05:53.714Z,392.2958
2023-05-10T23:11:05.828Z,391.7752
2023-05-10T23:16:17.996Z,391.4291
2023-05-10T23:21:32.134Z,391.3445
2023-05-10T23:26:44.438Z,391.6035
2023-05-10T23:31:56.625Z,390.824
2023-05-10T23:37:10.109Z,391.1702
2023-05-10T23:42:22.359Z,390.9984
2023-05-10T23:47:34.585Z,392.2086
2023-05-10T23:52:46.912Z,391.688
2023-05-10T23:57:59.031Z,391.8624
